To NAV CANADA Home Page Login to a new session Search on AWWS site Feedback and Comments Disclaimer Vers la page française équivalente Tips FAQ What's new on the site To the Forecasts and Observations / NOTAM section To "File a Flight Plan" website Publications and other links Update of the User's profile FIC Telephone Numbers My Weather Data Folder Route Weather Data Regional Weather Data Local Weather Data To the Forecasts and Observations / NOTAM section
Request Generated 01/21/2017 at 02:07:08 UTC . Weather information available at that time is displayed.

METAR/TAF

MEDICINE HAT/AB    (show WxCam)

METAR CYXH 210200Z 23002KT 15SM SKC M00/M04 A2934 RMK SLP961=
METAR CYXH 210100Z 21004KT 15SM FEW270 M00/M04 A2933 RMK CI1 SLP957=
METAR CYXH 210000Z 20006KT 30SM FEW270 03/M04 A2932 RMK CI2 SLP952=

TAF CYXH 202348Z 2100/2112 21005KT P6SM SCT270 TEMPO 2107/2112
17005KT
RMK NXT FCST BY 210600Z=
Your time UTC time
Weather data provided by Environment Canada and NAV CANADA